Aurora — ZCDW9 — position and weather

sailwx.info

Track history (hours):
 
Tides and Currents Weather Stations Pressure Air Temp Water Temp Dewpoint Dewpoint Depression Visibility Wind Speed Wind Dir Waves Ship Positions

Aurora (Bermuda)

Last reported at 2019-Oct-21 23:00 UTC. Time now 2019-Oct-22 09:33 UTC.
Position N 45°24' W 008°54'.

Length 271 m; draft 8.3 m.

Type: Ship. MMSI: 310555970.

Wind from 060 at 8 knots

Barometer 1022.6 mb
Air temperature 15.0 ° C
Visibility: greater than 27.0 NM
Dewpoint 6.9 ° C
Water temperature 16.0 ° C

Date/timePositionNaut miles runAvg speedWind from/ knotsBaromVisibWave heightAir tempDewpointWater temp
2019-Oct-21 23:00N 45°24' W 008°54'6616.5 060 / 81022.627.0 15.0 6.916.0
2019-Oct-21 19:00N 46°18' W 008°00'19515.0 070 / 151023.210.8 14.5 9.716.0
2019-Oct-21 06:00N 49°00' W 005°18'5618.7 040 / 211018.810.8 12.010.114.0
2019-Oct-21 03:00N 49°32' W 004°07'816.9
2019-Oct-21 02:30N 49°36' W 003°56'816.7
2019-Oct-21 02:00N 49°41' W 003°46'816.4
2019-Oct-21 01:30N 49°47' W 003°38'816.1
2019-Oct-21 01:01N 49°51' W 003°27'815.8
2019-Oct-21 00:31N 49°54' W 003°15'815.5
2019-Oct-21 00:01N 49°57' W 003°04'815.2
2019-Oct-20 23:30N 49°60' W 002°53'815.1
2019-Oct-20 23:01N 50°02' W 002°42'1115.1
2019-Oct-20 22:19N 50°05' W 002°26'4816.3
2019-Oct-20 19:22N 50°27' W 001°19'618.0
2019-Oct-20 19:00N 50°30' W 001°10'917.3
2019-Oct-20 18:31N 50°35' W 000°59'714.7
2019-Oct-20 18:00N 50°42' W 000°59'815.1
2019-Oct-20 17:31N 50°46' W 001°09'612.0
2019-Oct-20 17:00N 50°48' W 001°18'5 9.4
2019-Oct-20 16:30N 50°52' W 001°22'4 7.1
2019-Oct-20 16:00N 50°54' W 001°26'0 0.5
2019-Oct-20 15:30N 50°54' W 001°26'0 0.0
2019-Oct-20 15:00N 50°54' W 001°26'0 0.0
2019-Oct-20 14:12N 50°54' W 001°26'0 0.0
2019-Oct-20 14:00N 50°54' W 001°26'0 0.0
2019-Oct-20 13:30N 50°54' W 001°26'0 0.0
2019-Oct-20 13:00N 50°54' W 001°26'0 0.0
2019-Oct-20 12:21N 50°54' W 001°26'0 0.0
2019-Oct-20 11:57N 50°54' W 001°26'0 0.0
2019-Oct-20 11:24N 50°54' W 001°26'0 0.0
2019-Oct-20 10:57N 50°54' W 001°26'0 0.0
2019-Oct-20 10:30N 50°54' W 001°26'0 0.0
2019-Oct-20 09:54N 50°54' W 001°26'0 0.0
2019-Oct-20 09:30N 50°54' W 001°26'0 0.0
2019-Oct-20 09:00N 50°54' W 001°26'0 0.0
2019-Oct-20 08:30N 50°54' W 001°26'0 0.0
2019-Oct-20 07:57N 50°54' W 001°26'0 0.0
2019-Oct-20 07:30N 50°54' W 001°26'0 0.0
2019-Oct-20 06:57N 50°54' W 001°26'0 0.0
2019-Oct-20 06:30N 50°54' W 001°26'0 0.1
2019-Oct-20 06:00N 50°54' W 001°26'3 5.2
2019-Oct-20 05:30N 50°52' W 001°23'5 9.3
2019-Oct-20 05:00N 50°49' W 001°18'5 9.2
2019-Oct-20 04:31N 50°46' W 001°13'815.6
2019-Oct-20 04:00N 50°43' W 001°01'611.8
2019-Oct-20 03:30N 50°39' W 000°54'611.9
2019-Oct-20 03:00N 50°37' W 000°46'612.9
2019-Oct-20 02:30N 50°35' W 000°36'816.2
2019-Oct-20 02:00N 50°33' W 000°24'2615.2
2019-Oct-20 00:17N 50°34' E 000°18'515.6
2019-Oct-20 00:00N 50°35' E 000°24'815.6
2019-Oct-19 23:30N 50°37' E 000°36'816.1
2019-Oct-19 23:00N 50°41' E 000°47'817.0
2019-Oct-19 22:30N 50°47' E 000°57'917.8
2019-Oct-19 22:00N 50°53' E 001°07'918.5
2019-Oct-19 21:30N 50°59' E 001°18'918.6
2019-Oct-19 21:00N 51°05' E 001°30'918.1
2019-Oct-19 20:30N 51°11' E 001°41'917.2
2019-Oct-19 20:00N 51°18' E 001°49'816.5
2019-Oct-19 19:30N 51°25' E 001°55'611.2
2019-Oct-19 19:00N 51°25' E 002°04'816.6
2019-Oct-19 18:30N 51°21' E 002°15'815.6
2019-Oct-19 18:00N 51°23' E 002°27'815.8
2019-Oct-19 17:30N 51°23' E 002°40'612.4
2019-Oct-19 17:00N 51°22' E 002°50'815.6
2019-Oct-19 16:30N 51°24' E 003°02'713.8
2019-Oct-19 16:00N 51°21' E 003°12'1 1.9
2019-Oct-19 15:29N 51°20' E 003°12'0 0.0
2019-Oct-19 14:56N 51°20' E 003°12'0 0.0
2019-Oct-19 14:29N 51°20' E 003°12'0 0.0
2019-Oct-19 13:56N 51°20' E 003°12'0 0.0
2019-Oct-19 13:29N 51°20' E 003°12'0 0.0
2019-Oct-19 12:59N 51°20' E 003°12'0 0.0
2019-Oct-19 12:29N 51°20' E 003°12'0 0.0
2019-Oct-19 11:59N 51°20' E 003°12'0 0.0
2019-Oct-19 11:29N 51°20' E 003°12'0 0.0
2019-Oct-19 10:59N 51°20' E 003°12'0 0.0
2019-Oct-19 10:29N 51°20' E 003°12'0 0.0
2019-Oct-19 09:59N 51°20' E 003°12'0 0.0
2019-Oct-19 09:29N 51°20' E 003°12'0 0.0
2019-Oct-19 08:59N 51°20' E 003°12'0 0.0
2019-Oct-19 08:29N 51°20' E 003°12'0 0.0
2019-Oct-19 07:59N 51°20' E 003°12'0 0.0
2019-Oct-19 07:29N 51°20' E 003°12'0 0.0
2019-Oct-19 06:59N 51°20' E 003°12'0 0.0
2019-Oct-19 06:29N 51°20' E 003°12'0 0.0
2019-Oct-19 05:59N 51°20' E 003°12'0 0.4
2019-Oct-19 05:30N 51°21' E 003°12'1 2.7
2019-Oct-19 05:00N 51°22' E 003°11'714.0
2019-Oct-19 04:30N 51°24' E 003°01'917.2
2019-Oct-19 04:00N 51°22' E 002°48'612.2
2019-Oct-19 03:30N 51°22' E 002°38'713.7
2019-Oct-19 03:01N 51°21' E 002°27'714.6
2019-Oct-19 02:31N 51°17' E 002°17'816.9
2019-Oct-19 02:00N 51°13' E 002°05'917.1
2019-Oct-19 01:30N 51°09' E 001°53'816.6
2019-Oct-19 01:00N 51°04' E 001°43'816.2
2019-Oct-19 00:30N 50°58' E 001°34'918.1
2019-Oct-19 00:01N 50°50' E 001°28'917.3
2019-Oct-18 23:30N 50°42' E 001°21'917.4
2019-Oct-18 23:00N 50°37' E 001°10'917.4
2019-Oct-18 22:30N 50°32' E 000°59'917.8
2019-Oct-18 22:00N 50°29' E 000°45'918.3
2019-Oct-18 21:30N 50°27' E 000°31'918.6
2019-Oct-18 21:01N 50°25' E 000°17'918.2
2019-Oct-18 20:29N 50°22' E 000°03'917.5
2019-Oct-18 19:58N 50°26' W 000°10'817.7
2019-Oct-18 19:30N 50°30' W 000°21'917.3
2019-Oct-18 19:00N 50°33' W 000°34'817.0
2019-Oct-18 18:30N 50°36' W 000°46'815.1
2019-Oct-18 18:00N 50°40' W 000°56'612.4
2019-Oct-18 17:30N 50°44' W 001°04'917.4
2019-Oct-18 17:00N 50°46' W 001°17'5 9.7
2019-Oct-18 16:30N 50°51' W 001°20'5 9.6
2019-Oct-18 16:00N 50°54' W 001°26'0 0.2
2019-Oct-18 15:26N 50°54' W 001°26'0 0.0
2019-Oct-18 14:59N 50°54' W 001°26'0 0.0
2019-Oct-18 14:26N 50°54' W 001°26'0 0.0
2019-Oct-18 13:59N 50°54' W 001°26'0 0.0
2019-Oct-18 13:29N 50°54' W 001°26'0 0.0
2019-Oct-18 12:56N 50°54' W 001°26'0 0.0
2019-Oct-18 12:29N 50°54' W 001°26'0 0.0
2019-Oct-18 11:56N 50°54' W 001°26'0 0.0
2019-Oct-18 11:29N 50°54' W 001°26'0 0.0
2019-Oct-18 10:59N 50°54' W 001°26'0 0.0
2019-Oct-18 10:26N 50°54' W 001°26'0 0.0
2019-Oct-18 09:59N 50°54' W 001°26'0 0.0
2019-Oct-18 09:29N 50°54' W 001°26'0 0.0
2019-Oct-18 08:59N 50°54' W 001°26'0 0.0
2019-Oct-18 08:26N 50°54' W 001°26'0 0.0
2019-Oct-18 07:59N 50°54' W 001°26'0 0.0
2019-Oct-18 07:26N 50°54' W 001°26'0 0.0
2019-Oct-18 06:59N 50°54' W 001°26'0 0.0
2019-Oct-18 06:29N 50°54' W 001°26'0 0.0
2019-Oct-18 05:59N 50°54' W 001°26'0 0.0
2019-Oct-18 05:29N 50°54' W 001°26'0 0.6
2019-Oct-18 05:01N 50°54' W 001°26'2 3.5
2019-Oct-18 04:30N 50°53' W 001°24'4 7.2
2019-Oct-18 04:00N 50°51' W 001°20'4 8.5
2019-Oct-18 03:31N 50°47' W 001°19'815.8
2019-Oct-18 03:01N 50°45' W 001°06'713.2
2019-Oct-18 02:30N 50°41' W 000°59'510.3
2019-Oct-18 02:00N 50°35' W 001°00'5 9.9
2019-Oct-18 01:30N 50°32' W 001°05'510.0
2019-Oct-18 01:00N 50°30' W 001°13'510.8
2019-Oct-18 00:30N 50°28' W 001°21'611.7
2019-Oct-17 23:58N 50°26' W 001°30'612.8
2019-Oct-17 23:30N 50°24' W 001°39'815.3
2019-Oct-17 23:00N 50°22' W 001°50'815.9
2019-Oct-17 22:30N 50°20' W 002°02'613.0
2019-Oct-17 22:00N 50°18' W 002°12'713.9
2019-Oct-17 21:31N 50°16' W 002°23'713.5
2019-Oct-17 21:01N 50°15' W 002°33'3198.7
2019-Oct-17 21:00N 50°12' W 002°30'816.9 220 / 441001.610.8 14.010.216.0
2019-Oct-17 20:30N 50°13' W 002°43'612.3
2019-Oct-17 20:01N 50°11' W 002°52'611.6
2019-Oct-17 19:30N 50°09' W 003°00'612.2
2019-Oct-17 19:00N 50°05' W 003°07'714.1
2019-Oct-17 18:30N 49°60' W 003°14'815.9
2019-Oct-17 18:01N 49°54' W 003°23'815.7
2019-Oct-17 17:31N 49°49' W 003°32'815.5
2019-Oct-17 17:00N 49°43' W 003°40'8534.3
2019-Oct-17 17:00N 49°48' W 003°30'1632.6 220 / 301002.9 14.810.416.1
2019-Oct-17 16:30N 49°37' W 003°48'815.3
2019-Oct-17 16:00N 49°32' W 003°57'815.2
2019-Oct-17 15:31N 49°28' W 004°06'2717.6
2019-Oct-17 14:00N 49°06' W 004°30'5 9.4 210 / 251005.810.8 14.011.213.0
2019-Oct-17 13:27N 49°05' W 004°38'814.1
2019-Oct-17 12:54N 48°60' W 004°46'613.9
2019-Oct-17 12:30N 48°56' W 004°52'713.6
2019-Oct-17 12:00N 48°50' W 004°58'713.5
2019-Oct-17 11:31N 48°45' W 005°05'713.2
2019-Oct-17 11:00N 48°40' W 005°11'713.3
2019-Oct-17 10:31N 48°35' W 005°18'713.4
2019-Oct-17 10:00N 48°30' W 005°25'6439.3
2019-Oct-17 10:00N 48°24' W 005°24'4 7.4 220 / 181006.510.8 15.011.317.0
2019-Oct-17 09:30N 48°24' W 005°29'713.8
2019-Oct-17 09:00N 48°18' W 005°34'714.1
2019-Oct-17 08:30N 48°13' W 005°40'1014.3
2019-Oct-17 07:48N 48°04' W 005°48'2312.9
2019-Oct-17 06:00N 47°42' W 006°00'7618.9 250 / 231006.810.8 15.011.316.0
2019-Oct-17 02:00N 46°36' W 006°54'7612.6 260 / 141009.210.8 14.012.217.0
2019-Oct-16 20:00N 45°30' W 007°48'10414.8 300 / 121010.510.8 16.012.417.0
2019-Oct-16 13:00N 44°00' W 009°00'4916.5 010 / 71009.810.8 17.013.516.0
2019-Oct-16 10:00N 43°18' W 009°36'5413.5 300 / 181010.4 2.2 18.517.718.0
2019-Oct-16 06:00N 42°24' W 009°42'6613.2 220 / 301013.3 5.4 18.516.218.0
2019-Oct-16 01:00N 41°18' W 009°48'7218.0 220 / 311016.410.8 19.515.319.0
2019-Oct-15 21:00N 40°06' W 009°48'3612.6 230 / 221020.410.8 19.015.619.0
2019-Oct-15 18:08N 39°30' W 009°52'215.0
2019-Oct-15 17:59N 39°28' W 009°52'715.1
2019-Oct-15 17:30N 39°21' W 009°53'714.9
2019-Oct-15 17:00N 39°13' W 009°53'815.3
2019-Oct-15 16:31N 39°06' W 009°52'815.2
2019-Oct-15 16:00N 38°58' W 009°52'714.7
2019-Oct-15 15:30N 38°51' W 009°52'714.5
2019-Oct-15 15:01N 38°43' W 009°51'715.0
2019-Oct-15 14:31N 38°36' W 009°50'714.6
2019-Oct-15 14:00N 38°29' W 009°49'714.5
2019-Oct-15 13:31N 38°22' W 009°46'814.8
2019-Oct-15 13:00N 38°14' W 009°44'714.8
2019-Oct-15 12:31N 38°07' W 009°42'714.7
2019-Oct-15 12:01N 38°00' W 009°40'714.6
2019-Oct-15 11:31N 37°53' W 009°37'714.7
2019-Oct-15 11:01N 37°46' W 009°35'714.6
2019-Oct-15 10:31N 37°39' W 009°33'1732.1
2019-Oct-15 10:00N 37°24' W 009°24'9464.1 120 / 81024.110.8 19.015.618.0
2019-Oct-15 09:58N 37°31' W 009°31'714.3
2019-Oct-15 09:30N 37°25' W 009°29'2214.3
2019-Oct-15 07:58N 37°04' W 009°23'914.2
2019-Oct-15 07:19N 36°55' W 009°19'514.9
2019-Oct-15 06:58N 36°50' W 009°15'715.0
2019-Oct-15 06:30N 36°45' W 009°09'714.7
2019-Oct-15 06:00N 36°42' W 009°01'168.5
2019-Oct-15 06:00N 36°42' W 009°00'713.8 040 / 151023.010.8 17.0 9.419.0
2019-Oct-15 05:30N 36°40' W 008°52'1415.3
2019-Oct-15 04:37N 36°36' W 008°36'215.2
2019-Oct-15 04:30N 36°36' W 008°34'715.1
2019-Oct-15 04:00N 36°33' W 008°25'815.4
2019-Oct-15 03:30N 36°31' W 008°16'1515.3
2019-Oct-15 02:32N 36°26' W 007°58'2012.7
2019-Oct-15 01:00N 36°18' W 007°36'6616.4 360 / 241021.910.8 19.017.420.0
2019-Oct-14 21:00N 36°00' W 006°18'146 7.7 320 / 221020.810.8 20.016.720.0
2019-Oct-14 02:00N 36°18' W 003°18'5313.4 310 / 51013.310.8 22.021.222.0
2019-Oct-13 22:00N 36°24' W 002°12'6512.9 060 / 191015.710.8 22.020.521.0
2019-Oct-13 17:00N 37°12' W 001°18'38 3.2 1015.510.8 24.0 22.0
2019-Oct-13 05:00N 37°30' W 000°36'4515.0 350 / 251015.910.8 24.021.024.0
2019-Oct-13 02:00N 37°54' E 000°12'6117.1 010 / 191015.710.8 24.021.822.0
2019-Oct-12 22:24N 38°18' E 001°24'818.5
2019-Oct-12 21:57N 38°22' E 001°34'1018.8
2019-Oct-12 21:26N 38°26' E 001°45'818.6
2019-Oct-12 21:00N 38°29' E 001°54'1018.8
2019-Oct-12 20:28N 38°33' E 002°06'918.8
2019-Oct-12 20:00N 38°37' E 002°16'918.7
2019-Oct-12 19:30N 38°41' E 002°27'918.2
2019-Oct-12 18:59N 38°45' E 002°38'1218.3
2019-Oct-12 18:19N 38°49' E 002°52'822.9
2019-Oct-12 18:00N 38°54' E 003°00'230.0 140 / 201018.010.8 23.020.722.0
2019-Oct-12 17:56N 38°52' E 003°01'1118.7
2019-Oct-12 17:22N 38°58' E 003°12'718.4
2019-Oct-12 16:58N 39°02' E 003°21'2818.2
2019-Oct-12 15:27N 39°16' E 003°52'1518.3
2019-Oct-12 14:36N 39°23' E 004°09'2744.3
2019-Oct-12 14:00N 39°48' E 004°24'191144.4 150 / 181019.310.8 23.518.822.0
2019-Oct-12 13:59N 39°29' E 004°21'6418.3
2019-Oct-12 10:30N 40°02' E 005°33'918.3
2019-Oct-12 10:00N 40°06' E 005°43'6917.1
2019-Oct-12 06:00N 40°42' E 007°00'4518.5 150 / 21021.810.8 20.013.022.0
2019-Oct-12 03:33N 41°03' E 007°53'118.3
2019-Oct-12 03:30N 41°04' E 007°54'918.5
2019-Oct-12 03:00N 41°09' E 008°04'918.3
2019-Oct-12 02:30N 41°12' E 008°15'918.8
2019-Oct-12 02:01N 41°14' E 008°27'918.8
2019-Oct-12 01:30N 41°15' E 008°40'919.0
2019-Oct-12 01:00N 41°16' E 008°52'918.6
2019-Oct-12 00:30N 41°17' E 009°05'  
Track history (hours):
 
Tides and Currents Weather Stations Pressure Air Temp Water Temp Dewpoint Dewpoint Depression Visibility Wind Speed Wind Dir Waves Ship Positions

Aurora (Bermuda)

Last reported at 2019-Oct-21 23:00 UTC. Time now 2019-Oct-22 09:33 UTC.
Position N 45°24' W 008°54'.

Length 271 m; draft 8.3 m.

Type: Ship. MMSI: 310555970.

Wind from 060 at 8 knots

Barometer 1022.6 mb
Air temperature 15.0 ° C
Visibility: greater than 27.0 NM
Dewpoint 6.9 ° C
Water temperature 16.0 ° C

Date/timePositionNaut miles runAvg speedWind from/ knotsBaromVisibWave heightAir tempDewpointWater temp
2019-Oct-21 23:00N 45°24' W 008°54'6616.5 060 / 81022.627.0 15.0 6.916.0
2019-Oct-21 19:00N 46°18' W 008°00'19515.0 070 / 151023.210.8 14.5 9.716.0
2019-Oct-21 06:00N 49°00' W 005°18'5618.7 040 / 211018.810.8 12.010.114.0
2019-Oct-21 03:00N 49°32' W 004°07'816.9
2019-Oct-21 02:30N 49°36' W 003°56'816.7
2019-Oct-21 02:00N 49°41' W 003°46'816.4
2019-Oct-21 01:30N 49°47' W 003°38'816.1
2019-Oct-21 01:01N 49°51' W 003°27'815.8
2019-Oct-21 00:31N 49°54' W 003°15'815.5
2019-Oct-21 00:01N 49°57' W 003°04'815.2
2019-Oct-20 23:30N 49°60' W 002°53'815.1
2019-Oct-20 23:01N 50°02' W 002°42'1115.1
2019-Oct-20 22:19N 50°05' W 002°26'4816.3
2019-Oct-20 19:22N 50°27' W 001°19'618.0
2019-Oct-20 19:00N 50°30' W 001°10'917.3
2019-Oct-20 18:31N 50°35' W 000°59'714.7
2019-Oct-20 18:00N 50°42' W 000°59'815.1
2019-Oct-20 17:31N 50°46' W 001°09'612.0
2019-Oct-20 17:00N 50°48' W 001°18'5 9.4
2019-Oct-20 16:30N 50°52' W 001°22'4 7.1
2019-Oct-20 16:00N 50°54' W 001°26'0 0.5
2019-Oct-20 15:30N 50°54' W 001°26'0 0.0
2019-Oct-20 15:00N 50°54' W 001°26'0 0.0
2019-Oct-20 14:12N 50°54' W 001°26'0 0.0
2019-Oct-20 14:00N 50°54' W 001°26'0 0.0
2019-Oct-20 13:30N 50°54' W 001°26'0 0.0
2019-Oct-20 13:00N 50°54' W 001°26'0 0.0
2019-Oct-20 12:21N 50°54' W 001°26'0 0.0
2019-Oct-20 11:57N 50°54' W 001°26'0 0.0
2019-Oct-20 11:24N 50°54' W 001°26'0 0.0
2019-Oct-20 10:57N 50°54' W 001°26'0 0.0
2019-Oct-20 10:30N 50°54' W 001°26'0 0.0
2019-Oct-20 09:54N 50°54' W 001°26'0 0.0
2019-Oct-20 09:30N 50°54' W 001°26'0 0.0
2019-Oct-20 09:00N 50°54' W 001°26'0 0.0
2019-Oct-20 08:30N 50°54' W 001°26'0 0.0
2019-Oct-20 07:57N 50°54' W 001°26'0 0.0
2019-Oct-20 07:30N 50°54' W 001°26'0 0.0
2019-Oct-20 06:57N 50°54' W 001°26'0 0.0
2019-Oct-20 06:30N 50°54' W 001°26'0 0.1
2019-Oct-20 06:00N 50°54' W 001°26'3 5.2
2019-Oct-20 05:30N 50°52' W 001°23'5 9.3
2019-Oct-20 05:00N 50°49' W 001°18'5 9.2
2019-Oct-20 04:31N 50°46' W 001°13'815.6
2019-Oct-20 04:00N 50°43' W 001°01'611.8
2019-Oct-20 03:30N 50°39' W 000°54'611.9
2019-Oct-20 03:00N 50°37' W 000°46'612.9
2019-Oct-20 02:30N 50°35' W 000°36'816.2
2019-Oct-20 02:00N 50°33' W 000°24'2615.2
2019-Oct-20 00:17N 50°34' E 000°18'515.6
2019-Oct-20 00:00N 50°35' E 000°24'815.6
2019-Oct-19 23:30N 50°37' E 000°36'816.1
2019-Oct-19 23:00N 50°41' E 000°47'817.0
2019-Oct-19 22:30N 50°47' E 000°57'917.8
2019-Oct-19 22:00N 50°53' E 001°07'918.5
2019-Oct-19 21:30N 50°59' E 001°18'918.6
2019-Oct-19 21:00N 51°05' E 001°30'918.1
2019-Oct-19 20:30N 51°11' E 001°41'917.2
2019-Oct-19 20:00N 51°18' E 001°49'816.5
2019-Oct-19 19:30N 51°25' E 001°55'611.2
2019-Oct-19 19:00N 51°25' E 002°04'816.6
2019-Oct-19 18:30N 51°21' E 002°15'815.6
2019-Oct-19 18:00N 51°23' E 002°27'815.8
2019-Oct-19 17:30N 51°23' E 002°40'612.4
2019-Oct-19 17:00N 51°22' E 002°50'815.6
2019-Oct-19 16:30N 51°24' E 003°02'713.8
2019-Oct-19 16:00N 51°21' E 003°12'1 1.9
2019-Oct-19 15:29N 51°20' E 003°12'0 0.0
2019-Oct-19 14:56N 51°20' E 003°12'0 0.0
2019-Oct-19 14:29N 51°20' E 003°12'0 0.0
2019-Oct-19 13:56N 51°20' E 003°12'0 0.0
2019-Oct-19 13:29N 51°20' E 003°12'0 0.0
2019-Oct-19 12:59N 51°20' E 003°12'0 0.0
2019-Oct-19 12:29N 51°20' E 003°12'0 0.0
2019-Oct-19 11:59N 51°20' E 003°12'0 0.0
2019-Oct-19 11:29N 51°20' E 003°12'0 0.0
2019-Oct-19 10:59N 51°20' E 003°12'0 0.0
2019-Oct-19 10:29N 51°20' E 003°12'0 0.0
2019-Oct-19 09:59N 51°20' E 003°12'0 0.0
2019-Oct-19 09:29N 51°20' E 003°12'0 0.0
2019-Oct-19 08:59N 51°20' E 003°12'0 0.0
2019-Oct-19 08:29N 51°20' E 003°12'0 0.0
2019-Oct-19 07:59N 51°20' E 003°12'0 0.0
2019-Oct-19 07:29N 51°20' E 003°12'0 0.0
2019-Oct-19 06:59N 51°20' E 003°12'0 0.0
2019-Oct-19 06:29N 51°20' E 003°12'0 0.0
2019-Oct-19 05:59N 51°20' E 003°12'0 0.4
2019-Oct-19 05:30N 51°21' E 003°12'1 2.7
2019-Oct-19 05:00N 51°22' E 003°11'714.0
2019-Oct-19 04:30N 51°24' E 003°01'917.2
2019-Oct-19 04:00N 51°22' E 002°48'612.2
2019-Oct-19 03:30N 51°22' E 002°38'713.7
2019-Oct-19 03:01N 51°21' E 002°27'714.6
2019-Oct-19 02:31N 51°17' E 002°17'816.9
2019-Oct-19 02:00N 51°13' E 002°05'917.1
2019-Oct-19 01:30N 51°09' E 001°53'816.6
2019-Oct-19 01:00N 51°04' E 001°43'816.2
2019-Oct-19 00:30N 50°58' E 001°34'918.1
2019-Oct-19 00:01N 50°50' E 001°28'917.3
2019-Oct-18 23:30N 50°42' E 001°21'917.4
2019-Oct-18 23:00N 50°37' E 001°10'917.4
2019-Oct-18 22:30N 50°32' E 000°59'917.8
2019-Oct-18 22:00N 50°29' E 000°45'918.3
2019-Oct-18 21:30N 50°27' E 000°31'918.6
2019-Oct-18 21:01N 50°25' E 000°17'918.2
2019-Oct-18 20:29N 50°22' E 000°03'917.5
2019-Oct-18 19:58N 50°26' W 000°10'817.7
2019-Oct-18 19:30N 50°30' W 000°21'917.3
2019-Oct-18 19:00N 50°33' W 000°34'817.0
2019-Oct-18 18:30N 50°36' W 000°46'815.1
2019-Oct-18 18:00N 50°40' W 000°56'612.4
2019-Oct-18 17:30N 50°44' W 001°04'917.4
2019-Oct-18 17:00N 50°46' W 001°17'5 9.7
2019-Oct-18 16:30N 50°51' W 001°20'5 9.6
2019-Oct-18 16:00N 50°54' W 001°26'0 0.2
2019-Oct-18 15:26N 50°54' W 001°26'0 0.0
2019-Oct-18 14:59N 50°54' W 001°26'0 0.0
2019-Oct-18 14:26N 50°54' W 001°26'0 0.0
2019-Oct-18 13:59N 50°54' W 001°26'0 0.0
2019-Oct-18 13:29N 50°54' W 001°26'0 0.0
2019-Oct-18 12:56N 50°54' W 001°26'0 0.0
2019-Oct-18 12:29N 50°54' W 001°26'0 0.0
2019-Oct-18 11:56N 50°54' W 001°26'0 0.0
2019-Oct-18 11:29N 50°54' W 001°26'0 0.0
2019-Oct-18 10:59N 50°54' W 001°26'0 0.0
2019-Oct-18 10:26N 50°54' W 001°26'0 0.0
2019-Oct-18 09:59N 50°54' W 001°26'0 0.0
2019-Oct-18 09:29N 50°54' W 001°26'0 0.0
2019-Oct-18 08:59N 50°54' W 001°26'0 0.0
2019-Oct-18 08:26N 50°54' W 001°26'0 0.0
2019-Oct-18 07:59N 50°54' W 001°26'0 0.0
2019-Oct-18 07:26N 50°54' W 001°26'0 0.0
2019-Oct-18 06:59N 50°54' W 001°26'0 0.0
2019-Oct-18 06:29N 50°54' W 001°26'0 0.0
2019-Oct-18 05:59N 50°54' W 001°26'0 0.0
2019-Oct-18 05:29N 50°54' W 001°26'0 0.6
2019-Oct-18 05:01N 50°54' W 001°26'2 3.5
2019-Oct-18 04:30N 50°53' W 001°24'4 7.2
2019-Oct-18 04:00N 50°51' W 001°20'4 8.5
2019-Oct-18 03:31N 50°47' W 001°19'815.8
2019-Oct-18 03:01N 50°45' W 001°06'713.2
2019-Oct-18 02:30N 50°41' W 000°59'510.3
2019-Oct-18 02:00N 50°35' W 001°00'5 9.9
2019-Oct-18 01:30N 50°32' W 001°05'510.0
2019-Oct-18 01:00N 50°30' W 001°13'510.8
2019-Oct-18 00:30N 50°28' W 001°21'611.7
2019-Oct-17 23:58N 50°26' W 001°30'612.8
2019-Oct-17 23:30N 50°24' W 001°39'815.3
2019-Oct-17 23:00N 50°22' W 001°50'815.9
2019-Oct-17 22:30N 50°20' W 002°02'613.0
2019-Oct-17 22:00N 50°18' W 002°12'713.9
2019-Oct-17 21:31N 50°16' W 002°23'713.5
2019-Oct-17 21:01N 50°15' W 002°33'3198.7
2019-Oct-17 21:00N 50°12' W 002°30'816.9 220 / 441001.610.8 14.010.216.0
2019-Oct-17 20:30N 50°13' W 002°43'612.3
2019-Oct-17 20:01N 50°11' W 002°52'611.6
2019-Oct-17 19:30N 50°09' W 003°00'612.2
2019-Oct-17 19:00N 50°05' W 003°07'714.1
2019-Oct-17 18:30N 49°60' W 003°14'815.9
2019-Oct-17 18:01N 49°54' W 003°23'815.7
2019-Oct-17 17:31N 49°49' W 003°32'815.5
2019-Oct-17 17:00N 49°43' W 003°40'8534.3
2019-Oct-17 17:00N 49°48' W 003°30'1632.6 220 / 301002.9 14.810.416.1
2019-Oct-17 16:30N 49°37' W 003°48'815.3
2019-Oct-17 16:00N 49°32' W 003°57'815.2
2019-Oct-17 15:31N 49°28' W 004°06'2717.6
2019-Oct-17 14:00N 49°06' W 004°30'5 9.4 210 / 251005.810.8 14.011.213.0
2019-Oct-17 13:27N 49°05' W 004°38'814.1
2019-Oct-17 12:54N 48°60' W 004°46'613.9
2019-Oct-17 12:30N 48°56' W 004°52'713.6
2019-Oct-17 12:00N 48°50' W 004°58'713.5
2019-Oct-17 11:31N 48°45' W 005°05'713.2
2019-Oct-17 11:00N 48°40' W 005°11'713.3
2019-Oct-17 10:31N 48°35' W 005°18'713.4
2019-Oct-17 10:00N 48°30' W 005°25'6439.3
2019-Oct-17 10:00N 48°24' W 005°24'4 7.4 220 / 181006.510.8 15.011.317.0
2019-Oct-17 09:30N 48°24' W 005°29'713.8
2019-Oct-17 09:00N 48°18' W 005°34'714.1
2019-Oct-17 08:30N 48°13' W 005°40'1014.3
2019-Oct-17 07:48N 48°04' W 005°48'2312.9
2019-Oct-17 06:00N 47°42' W 006°00'7618.9 250 / 231006.810.8 15.011.316.0
2019-Oct-17 02:00N 46°36' W 006°54'7612.6 260 / 141009.210.8 14.012.217.0
2019-Oct-16 20:00N 45°30' W 007°48'10414.8 300 / 121010.510.8 16.012.417.0
2019-Oct-16 13:00N 44°00' W 009°00'4916.5 010 / 71009.810.8 17.013.516.0
2019-Oct-16 10:00N 43°18' W 009°36'5413.5 300 / 181010.4 2.2 18.517.718.0
2019-Oct-16 06:00N 42°24' W 009°42'6613.2 220 / 301013.3 5.4 18.516.218.0
2019-Oct-16 01:00N 41°18' W 009°48'7218.0 220 / 311016.410.8 19.515.319.0
2019-Oct-15 21:00N 40°06' W 009°48'3612.6 230 / 221020.410.8 19.015.619.0
2019-Oct-15 18:08N 39°30' W 009°52'215.0
2019-Oct-15 17:59N 39°28' W 009°52'715.1
2019-Oct-15 17:30N 39°21' W 009°53'714.9
2019-Oct-15 17:00N 39°13' W 009°53'815.3
2019-Oct-15 16:31N 39°06' W 009°52'815.2
2019-Oct-15 16:00N 38°58' W 009°52'714.7
2019-Oct-15 15:30N 38°51' W 009°52'714.5
2019-Oct-15 15:01N 38°43' W 009°51'715.0
2019-Oct-15 14:31N 38°36' W 009°50'714.6
2019-Oct-15 14:00N 38°29' W 009°49'714.5
2019-Oct-15 13:31N 38°22' W 009°46'814.8
2019-Oct-15 13:00N 38°14' W 009°44'714.8
2019-Oct-15 12:31N 38°07' W 009°42'714.7
2019-Oct-15 12:01N 38°00' W 009°40'714.6
2019-Oct-15 11:31N 37°53' W 009°37'714.7
2019-Oct-15 11:01N 37°46' W 009°35'714.6
2019-Oct-15 10:31N 37°39' W 009°33'1732.1
2019-Oct-15 10:00N 37°24' W 009°24'9464.1 120 / 81024.110.8 19.015.618.0
2019-Oct-15 09:58N 37°31' W 009°31'714.3
2019-Oct-15 09:30N 37°25' W 009°29'2214.3
2019-Oct-15 07:58N 37°04' W 009°23'914.2
2019-Oct-15 07:19N 36°55' W 009°19'514.9
2019-Oct-15 06:58N 36°50' W 009°15'715.0
2019-Oct-15 06:30N 36°45' W 009°09'714.7
2019-Oct-15 06:00N 36°42' W 009°01'168.5
2019-Oct-15 06:00N 36°42' W 009°00'713.8 040 / 151023.010.8 17.0 9.419.0
2019-Oct-15 05:30N 36°40' W 008°52'1415.3
2019-Oct-15 04:37N 36°36' W 008°36'215.2
2019-Oct-15 04:30N 36°36' W 008°34'715.1
2019-Oct-15 04:00N 36°33' W 008°25'815.4
2019-Oct-15 03:30N 36°31' W 008°16'1515.3
2019-Oct-15 02:32N 36°26' W 007°58'2012.7
2019-Oct-15 01:00N 36°18' W 007°36'6616.4 360 / 241021.910.8 19.017.420.0
2019-Oct-14 21:00N 36°00' W 006°18'146 7.7 320 / 221020.810.8 20.016.720.0
2019-Oct-14 02:00N 36°18' W 003°18'5313.4 310 / 51013.310.8 22.021.222.0
2019-Oct-13 22:00N 36°24' W 002°12'6512.9 060 / 191015.710.8 22.020.521.0
2019-Oct-13 17:00N 37°12' W 001°18'38 3.2 1015.510.8 24.0 22.0
2019-Oct-13 05:00N 37°30' W 000°36'4515.0 350 / 251015.910.8 24.021.024.0
2019-Oct-13 02:00N 37°54' E 000°12'6117.1 010 / 191015.710.8 24.021.822.0
2019-Oct-12 22:24N 38°18' E 001°24'818.5
2019-Oct-12 21:57N 38°22' E 001°34'1018.8
2019-Oct-12 21:26N 38°26' E 001°45'818.6
2019-Oct-12 21:00N 38°29' E 001°54'1018.8
2019-Oct-12 20:28N 38°33' E 002°06'918.8
2019-Oct-12 20:00N 38°37' E 002°16'918.7
2019-Oct-12 19:30N 38°41' E 002°27'918.2
2019-Oct-12 18:59N 38°45' E 002°38'1218.3
2019-Oct-12 18:19N 38°49' E 002°52'822.9
2019-Oct-12 18:00N 38°54' E 003°00'230.0 140 / 201018.010.8 23.020.722.0
2019-Oct-12 17:56N 38°52' E 003°01'1118.7
2019-Oct-12 17:22N 38°58' E 003°12'718.4
2019-Oct-12 16:58N 39°02' E 003°21'2818.2
2019-Oct-12 15:27N 39°16' E 003°52'1518.3
2019-Oct-12 14:36N 39°23' E 004°09'2744.3
2019-Oct-12 14:00N 39°48' E 004°24'191144.4 150 / 181019.310.8 23.518.822.0
2019-Oct-12 13:59N 39°29' E 004°21'6418.3
2019-Oct-12 10:30N 40°02' E 005°33'918.3
2019-Oct-12 10:00N 40°06' E 005°43'6917.1
2019-Oct-12 06:00N 40°42' E 007°00'4518.5 150 / 21021.810.8 20.013.022.0
2019-Oct-12 03:33N 41°03' E 007°53'118.3
2019-Oct-12 03:30N 41°04' E 007°54'918.5
2019-Oct-12 03:00N 41°09' E 008°04'918.3
2019-Oct-12 02:30N 41°12' E 008°15'918.8
2019-Oct-12 02:01N 41°14' E 008°27'918.8
2019-Oct-12 01:30N 41°15' E 008°40'919.0
2019-Oct-12 01:00N 41°16' E 008°52'918.6
2019-Oct-12 00:30N 41°17' E 009°05'  

Dump ship's entire track history